3T2 weather

Wolfe Air Park
Manvel, Texas, United States

Public forecast

Using degrees Fahrenheit for public forecast. Weather courtesy of forecast.io.

METAR (pilot weather report)

Closest report is Pearland Regional Airport, 5.1 nm (9.4 km) ENE. Retrieved 2019/09/22 11:53 UTC (1 hour ago):

KLVJ 221153Z AUTO 00000KT 10SM CLR 25/23 A3003 RMK AO2 SLP168 T02500228 10267 20244 53003

TAF (pilot weather forecast)

Closest forecast is William P Hobby Airport, 10.2 nm (19.0 km) NNE. Retrieved 2019/09/22 12:22 UTC (36 minutes ago):

TAF KHOU 221120Z 2212/2312 11005KT P6SM FEW015 FEW250 TEMPO 2214/2216 BKN025 FM221600 14010KT P6SM VCSH SCT025 BKN035 FM222100 15010KT P6SM SCT040 BKN250 FM230200 14006KT P6SM FEW025 SCT250 FM230800 VRB04KT P6SM SCT020 SCT250